Terminal Aerodrome Forecast
Issued by NWS Albany, NY

Home | Current Version | Previous Version | Text Only | Print | Product List | Glossary On
Versions: 1 2 3 4 5 6 7 8 9 10 11 12 13 14 15 16 17 18 19 20 21 22
000
FTUS41 KALY 040655 AAA
TAFGFL
TAF AMD
KGFL 040655Z 0407/0506 VRB03KT 5SM BR SCT005
      TEMPO 0407/0411 2SM BR BKN005
     FM041200 VRB03KT P6SM SCT050 SCT090
     FM041500 23008KT P6SM BKN050 PROB30 0416/0420 4SM -TSRA BR
      SCT025CB BKN050
     FM042000 25008KT P6SM SCT050 BKN100
     FM050000 VRB03KT P6SM SCT050 SCT100=

USA.gov is the U.S. government's official web portal to all federal, state and local government web resources and services.